sensor_id;sensor_type;location;lat;lon;timestamp;P1;durP1;ratioP1;P2;durP2;ratioP2
65879;SDS011;52661;51.364;6.054;2024-01-30T00:00:53;7.63;;;3.00;;
65879;SDS011;52661;51.364;6.054;2024-01-30T00:03:19;8.52;;;3.30;;
65879;SDS011;52661;51.364;6.054;2024-01-30T00:05:44;6.75;;;3.33;;
65879;SDS011;52661;51.364;6.054;2024-01-30T00:08:09;7.80;;;3.37;;
65879;SDS011;52661;51.364;6.054;2024-01-30T00:10:35;6.35;;;3.22;;
65879;SDS011;52661;51.364;6.054;2024-01-30T00:13:01;6.47;;;2.55;;
65879;SDS011;52661;51.364;6.054;2024-01-30T00:15:27;5.22;;;3.00;;
65879;SDS011;52661;51.364;6.054;2024-01-30T00:17:53;7.28;;;3.20;;
65879;SDS011;52661;51.364;6.054;2024-01-30T00:20:18;6.55;;;3.60;;
65879;SDS011;52661;51.364;6.054;2024-01-30T00:22:43;8.23;;;3.63;;
65879;SDS011;52661;51.364;6.054;2024-01-30T00:25:09;5.80;;;3.30;;
65879;SDS011;52661;51.364;6.054;2024-01-30T00:27:34;7.45;;;2.97;;
65879;SDS011;52661;51.364;6.054;2024-01-30T00:30:00;6.87;;;3.37;;
65879;SDS011;52661;51.364;6.054;2024-01-30T00:32:25;7.00;;;3.43;;
65879;SDS011;52661;51.364;6.054;2024-01-30T00:34:50;7.00;;;4.17;;
65879;SDS011;52661;51.364;6.054;2024-01-30T00:37:16;8.02;;;3.55;;
65879;SDS011;52661;51.364;6.054;2024-01-30T00:39:41;9.75;;;4.00;;
65879;SDS011;52661;51.364;6.054;2024-01-30T00:42:07;7.60;;;3.57;;
65879;SDS011;52661;51.364;6.054;2024-01-30T00:44:34;10.43;;;3.87;;
65879;SDS011;52661;51.364;6.054;2024-01-30T00:47:02;6.22;;;3.22;;
65879;SDS011;52661;51.364;6.054;2024-01-30T00:49:28;6.80;;;3.33;;
65879;SDS011;52661;51.364;6.054;2024-01-30T00:51:54;7.75;;;3.55;;
65879;SDS011;52661;51.364;6.054;2024-01-30T00:54:19;12.90;;;4.32;;
65879;SDS011;52661;51.364;6.054;2024-01-30T00:56:45;8.80;;;3.57;;
65879;SDS011;52661;51.364;6.054;2024-01-30T00:59:11;9.18;;;3.95;;
65879;SDS011;52661;51.364;6.054;2024-01-30T01:01:36;9.07;;;2.90;;
65879;SDS011;52661;51.364;6.054;2024-01-30T01:04:02;7.50;;;3.30;;
65879;SDS011;52661;51.364;6.054;2024-01-30T01:06:27;7.03;;;4.13;;
65879;SDS011;52661;51.364;6.054;2024-01-30T01:08:52;8.52;;;3.60;;
65879;SDS011;52661;51.364;6.054;2024-01-30T01:11:18;4.87;;;3.17;;
65879;SDS011;52661;51.364;6.054;2024-01-30T01:13:43;5.00;;;2.83;;
65879;SDS011;52661;51.364;6.054;2024-01-30T01:16:09;5.05;;;3.00;;
65879;SDS011;52661;51.364;6.054;2024-01-30T01:18:34;6.00;;;3.43;;
65879;SDS011;52661;51.364;6.054;2024-01-30T01:20:59;7.10;;;3.87;;
65879;SDS011;52661;51.364;6.054;2024-01-30T01:23:25;8.88;;;3.95;;
65879;SDS011;52661;51.364;6.054;2024-01-30T01:25:51;9.88;;;3.97;;
65879;SDS011;52661;51.364;6.054;2024-01-30T01:28:16;9.05;;;3.42;;
65879;SDS011;52661;51.364;6.054;2024-01-30T01:30:41;6.03;;;2.97;;
65879;SDS011;52661;51.364;6.054;2024-01-30T01:33:07;9.85;;;3.03;;
65879;SDS011;52661;51.364;6.054;2024-01-30T01:35:32;7.77;;;3.63;;
65879;SDS011;52661;51.364;6.054;2024-01-30T01:37:57;8.80;;;3.93;;
65879;SDS011;52661;51.364;6.054;2024-01-30T01:40:25;8.60;;;3.83;;
65879;SDS011;52661;51.364;6.054;2024-01-30T01:42:52;8.27;;;3.90;;
65879;SDS011;52661;51.364;6.054;2024-01-30T01:45:18;9.00;;;3.38;;
65879;SDS011;52661;51.364;6.054;2024-01-30T01:47:45;6.85;;;3.35;;
65879;SDS011;52661;51.364;6.054;2024-01-30T01:50:13;9.43;;;3.92;;
65879;SDS011;52661;51.364;6.054;2024-01-30T01:52:43;10.80;;;2.92;;
65879;SDS011;52661;51.364;6.054;2024-01-30T01:55:08;8.05;;;3.83;;
65879;SDS011;52661;51.364;6.054;2024-01-30T01:57:34;7.07;;;3.28;;
65879;SDS011;52661;51.364;6.054;2024-01-30T02:00:00;6.60;;;3.63;;
65879;SDS011;52661;51.364;6.054;2024-01-30T02:02:27;6.90;;;3.88;;
65879;SDS011;52661;51.364;6.054;2024-01-30T02:04:56;9.48;;;3.50;;
65879;SDS011;52661;51.364;6.054;2024-01-30T02:07:22;7.15;;;3.50;;
65879;SDS011;52661;51.364;6.054;2024-01-30T02:09:47;5.72;;;2.60;;
65879;SDS011;52661;51.364;6.054;2024-01-30T02:12:13;7.53;;;3.08;;
65879;SDS011;52661;51.364;6.054;2024-01-30T02:14:45;6.20;;;2.50;;
65879;SDS011;52661;51.364;6.054;2024-01-30T02:17:11;7.07;;;3.15;;
65879;SDS011;52661;51.364;6.054;2024-01-30T02:19:36;6.88;;;3.22;;
65879;SDS011;52661;51.364;6.054;2024-01-30T02:22:02;9.05;;;2.85;;
65879;SDS011;52661;51.364;6.054;2024-01-30T02:24:28;5.88;;;3.22;;
65879;SDS011;52661;51.364;6.054;2024-01-30T02:26:53;8.57;;;3.13;;
65879;SDS011;52661;51.364;6.054;2024-01-30T02:29:18;7.03;;;3.13;;
65879;SDS011;52661;51.364;6.054;2024-01-30T02:31:44;5.30;;;2.90;;
65879;SDS011;52661;51.364;6.054;2024-01-30T02:34:10;5.20;;;2.75;;
65879;SDS011;52661;51.364;6.054;2024-01-30T02:36:36;7.57;;;3.67;;
65879;SDS011;52661;51.364;6.054;2024-01-30T02:39:01;8.02;;;3.35;;
65879;SDS011;52661;51.364;6.054;2024-01-30T02:41:27;6.15;;;2.92;;
65879;SDS011;52661;51.364;6.054;2024-01-30T02:43:52;7.93;;;2.90;;
65879;SDS011;52661;51.364;6.054;2024-01-30T02:46:18;9.13;;;3.33;;
65879;SDS011;52661;51.364;6.054;2024-01-30T02:48:43;5.97;;;3.17;;
65879;SDS011;52661;51.364;6.054;2024-01-30T02:51:08;9.20;;;3.43;;
65879;SDS011;52661;51.364;6.054;2024-01-30T02:53:34;9.03;;;2.77;;
65879;SDS011;52661;51.364;6.054;2024-01-30T02:55:59;5.27;;;2.70;;
65879;SDS011;52661;51.364;6.054;2024-01-30T02:58:24;5.03;;;3.10;;
65879;SDS011;52661;51.364;6.054;2024-01-30T03:00:49;8.13;;;2.73;;
65879;SDS011;52661;51.364;6.054;2024-01-30T03:03:15;6.30;;;3.10;;
65879;SDS011;52661;51.364;6.054;2024-01-30T03:05:40;5.40;;;2.47;;
65879;SDS011;52661;51.364;6.054;2024-01-30T03:08:05;6.20;;;3.37;;
65879;SDS011;52661;51.364;6.054;2024-01-30T03:10:31;4.57;;;2.70;;
65879;SDS011;52661;51.364;6.054;2024-01-30T03:12:56;6.47;;;3.10;;
65879;SDS011;52661;51.364;6.054;2024-01-30T03:15:21;4.57;;;2.70;;
65879;SDS011;52661;51.364;6.054;2024-01-30T03:17:47;7.55;;;3.53;;
65879;SDS011;52661;51.364;6.054;2024-01-30T03:20:13;7.35;;;2.92;;
65879;SDS011;52661;51.364;6.054;2024-01-30T03:22:39;5.55;;;3.38;;
65879;SDS011;52661;51.364;6.054;2024-01-30T03:25:04;5.60;;;2.53;;
65879;SDS011;52661;51.364;6.054;2024-01-30T03:27:30;8.85;;;3.03;;
65879;SDS011;52661;51.364;6.054;2024-01-30T03:29:55;6.53;;;2.90;;
65879;SDS011;52661;51.364;6.054;2024-01-30T03:32:20;5.87;;;2.23;;
65879;SDS011;52661;51.364;6.054;2024-01-30T03:34:46;4.70;;;2.80;;
65879;SDS011;52661;51.364;6.054;2024-01-30T03:37:11;5.57;;;3.00;;
65879;SDS011;52661;51.364;6.054;2024-01-30T03:39:36;6.33;;;2.67;;
65879;SDS011;52661;51.364;6.054;2024-01-30T03:42:02;4.93;;;2.33;;
65879;SDS011;52661;51.364;6.054;2024-01-30T03:44:27;4.95;;;2.72;;
65879;SDS011;52661;51.364;6.054;2024-01-30T03:46:52;3.93;;;2.00;;
65879;SDS011;52661;51.364;6.054;2024-01-30T03:49:18;4.47;;;2.38;;
65879;SDS011;52661;51.364;6.054;2024-01-30T03:51:43;5.28;;;2.65;;
65879;SDS011;52661;51.364;6.054;2024-01-30T03:54:09;4.90;;;2.17;;
65879;SDS011;52661;51.364;6.054;2024-01-30T03:56:34;6.30;;;2.58;;
65879;SDS011;52661;51.364;6.054;2024-01-30T03:59:00;6.50;;;2.23;;
65879;SDS011;52661;51.364;6.054;2024-01-30T04:01:27;5.85;;;2.47;;
65879;SDS011;52661;51.364;6.054;2024-01-30T04:03:53;5.43;;;2.28;;
65879;SDS011;52661;51.364;6.054;2024-01-30T04:06:18;4.35;;;1.50;;
65879;SDS011;52661;51.364;6.054;2024-01-30T04:08:43;3.50;;;1.77;;
65879;SDS011;52661;51.364;6.054;2024-01-30T04:11:09;4.37;;;1.80;;
65879;SDS011;52661;51.364;6.054;2024-01-30T04:13:34;8.90;;;2.00;;
65879;SDS011;52661;51.364;6.054;2024-01-30T04:16:00;3.30;;;2.05;;
65879;SDS011;52661;51.364;6.054;2024-01-30T04:18:26;4.63;;;2.20;;
65879;SDS011;52661;51.364;6.054;2024-01-30T04:20:52;6.15;;;3.28;;
65879;SDS011;52661;51.364;6.054;2024-01-30T04:23:17;3.70;;;1.83;;
65879;SDS011;52661;51.364;6.054;2024-01-30T04:25:43;3.03;;;2.10;;
65879;SDS011;52661;51.364;6.054;2024-01-30T04:28:08;3.20;;;2.10;;
65879;SDS011;52661;51.364;6.054;2024-01-30T04:30:33;3.03;;;1.80;;
65879;SDS011;52661;51.364;6.054;2024-01-30T04:32:59;4.47;;;2.00;;
65879;SDS011;52661;51.364;6.054;2024-01-30T04:35:24;6.50;;;2.87;;
65879;SDS011;52661;51.364;6.054;2024-01-30T04:37:51;4.82;;;2.10;;
65879;SDS011;52661;51.364;6.054;2024-01-30T04:40:18;7.18;;;2.72;;
65879;SDS011;52661;51.364;6.054;2024-01-30T04:42:43;5.07;;;2.20;;
65879;SDS011;52661;51.364;6.054;2024-01-30T04:45:09;4.80;;;2.90;;
65879;SDS011;52661;51.364;6.054;2024-01-30T04:47:35;3.33;;;2.08;;
65879;SDS011;52661;51.364;6.054;2024-01-30T04:50:01;5.53;;;2.30;;
65879;SDS011;52661;51.364;6.054;2024-01-30T04:52:27;4.38;;;2.28;;
65879;SDS011;52661;51.364;6.054;2024-01-30T04:54:52;4.53;;;2.37;;
65879;SDS011;52661;51.364;6.054;2024-01-30T04:57:17;4.80;;;2.50;;
65879;SDS011;52661;51.364;6.054;2024-01-30T04:59:43;6.10;;;1.90;;
65879;SDS011;52661;51.364;6.054;2024-01-30T05:02:08;3.90;;;1.80;;
65879;SDS011;52661;51.364;6.054;2024-01-30T05:04:33;5.03;;;1.80;;
65879;SDS011;52661;51.364;6.054;2024-01-30T05:06:59;4.93;;;2.55;;
65879;SDS011;52661;51.364;6.054;2024-01-30T05:09:24;5.63;;;2.03;;
65879;SDS011;52661;51.364;6.054;2024-01-30T05:11:49;3.13;;;1.92;;
65879;SDS011;52661;51.364;6.054;2024-01-30T05:14:15;4.05;;;2.00;;
65879;SDS011;52661;51.364;6.054;2024-01-30T05:16:41;5.05;;;2.47;;
65879;SDS011;52661;51.364;6.054;2024-01-30T05:19:07;6.00;;;3.00;;
65879;SDS011;52661;51.364;6.054;2024-01-30T05:21:33;5.85;;;2.63;;
65879;SDS011;52661;51.364;6.054;2024-01-30T05:23:59;4.55;;;1.75;;
65879;SDS011;52661;51.364;6.054;2024-01-30T05:26:24;5.82;;;2.08;;
65879;SDS011;52661;51.364;6.054;2024-01-30T05:28:49;4.43;;;1.50;;
65879;SDS011;52661;51.364;6.054;2024-01-30T05:31:15;4.90;;;2.45;;
65879;SDS011;52661;51.364;6.054;2024-01-30T05:33:40;3.00;;;1.80;;
65879;SDS011;52661;51.364;6.054;2024-01-30T05:36:06;6.00;;;2.28;;
65879;SDS011;52661;51.364;6.054;2024-01-30T05:38:31;4.30;;;2.08;;
65879;SDS011;52661;51.364;6.054;2024-01-30T05:40:57;3.22;;;1.80;;
65879;SDS011;52661;51.364;6.054;2024-01-30T05:43:25;4.32;;;1.65;;
65879;SDS011;52661;51.364;6.054;2024-01-30T05:45:50;6.87;;;2.17;;
65879;SDS011;52661;51.364;6.054;2024-01-30T05:48:16;5.97;;;2.78;;
65879;SDS011;52661;51.364;6.054;2024-01-30T05:50:42;2.93;;;1.60;;
65879;SDS011;52661;51.364;6.054;2024-01-30T05:53:07;3.63;;;1.80;;
65879;SDS011;52661;51.364;6.054;2024-01-30T05:55:32;6.07;;;2.53;;
65879;SDS011;52661;51.364;6.054;2024-01-30T05:57:58;3.73;;;1.93;;
65879;SDS011;52661;51.364;6.054;2024-01-30T06:00:23;4.15;;;1.60;;
65879;SDS011;52661;51.364;6.054;2024-01-30T06:02:48;4.55;;;1.38;;
65879;SDS011;52661;51.364;6.054;2024-01-30T06:05:14;3.40;;;0.90;;
65879;SDS011;52661;51.364;6.054;2024-01-30T06:07:39;3.37;;;2.00;;
65879;SDS011;52661;51.364;6.054;2024-01-30T06:10:05;6.20;;;1.90;;
65879;SDS011;52661;51.364;6.054;2024-01-30T06:12:30;3.90;;;2.13;;
65879;SDS011;52661;51.364;6.054;2024-01-30T06:14:56;4.83;;;2.03;;
65879;SDS011;52661;51.364;6.054;2024-01-30T06:17:22;4.35;;;2.10;;
65879;SDS011;52661;51.364;6.054;2024-01-30T06:19:48;4.45;;;1.90;;
65879;SDS011;52661;51.364;6.054;2024-01-30T06:22:13;5.73;;;2.03;;
65879;SDS011;52661;51.364;6.054;2024-01-30T06:24:38;3.57;;;1.67;;
65879;SDS011;52661;51.364;6.054;2024-01-30T06:27:04;6.93;;;2.40;;
65879;SDS011;52661;51.364;6.054;2024-01-30T06:29:29;7.03;;;2.42;;
65879;SDS011;52661;51.364;6.054;2024-01-30T06:31:54;3.73;;;1.50;;
65879;SDS011;52661;51.364;6.054;2024-01-30T06:34:20;3.37;;;1.63;;
65879;SDS011;52661;51.364;6.054;2024-01-30T06:36:45;4.20;;;1.88;;
65879;SDS011;52661;51.364;6.054;2024-01-30T06:39:11;5.40;;;2.00;;
65879;SDS011;52661;51.364;6.054;2024-01-30T06:41:36;5.28;;;2.25;;
65879;SDS011;52661;51.364;6.054;2024-01-30T06:44:02;5.07;;;2.43;;
65879;SDS011;52661;51.364;6.054;2024-01-30T06:46:29;4.63;;;2.63;;
65879;SDS011;52661;51.364;6.054;2024-01-30T06:48:55;7.70;;;2.87;;
65879;SDS011;52661;51.364;6.054;2024-01-30T06:51:20;4.23;;;2.23;;
65879;SDS011;52661;51.364;6.054;2024-01-30T06:53:45;4.00;;;2.30;;
65879;SDS011;52661;51.364;6.054;2024-01-30T06:56:11;4.28;;;1.92;;
65879;SDS011;52661;51.364;6.054;2024-01-30T06:58:36;3.72;;;2.30;;
65879;SDS011;52661;51.364;6.054;2024-01-30T07:01:01;4.45;;;2.33;;
65879;SDS011;52661;51.364;6.054;2024-01-30T07:03:27;9.53;;;2.57;;
65879;SDS011;52661;51.364;6.054;2024-01-30T07:05:52;7.50;;;2.73;;
65879;SDS011;52661;51.364;6.054;2024-01-30T07:08:17;4.63;;;2.30;;
65879;SDS011;52661;51.364;6.054;2024-01-30T07:10:43;5.00;;;2.70;;
65879;SDS011;52661;51.364;6.054;2024-01-30T07:13:09;3.63;;;2.70;;
65879;SDS011;52661;51.364;6.054;2024-01-30T07:15:37;3.42;;;2.08;;
65879;SDS011;52661;51.364;6.054;2024-01-30T07:18:03;4.28;;;2.55;;
65879;SDS011;52661;51.364;6.054;2024-01-30T07:20:31;4.35;;;2.28;;
65879;SDS011;52661;51.364;6.054;2024-01-30T07:22:57;6.32;;;2.40;;
65879;SDS011;52661;51.364;6.054;2024-01-30T07:25:23;3.45;;;1.73;;
65879;SDS011;52661;51.364;6.054;2024-01-30T07:27:51;3.78;;;1.50;;
65879;SDS011;52661;51.364;6.054;2024-01-30T07:30:20;3.90;;;1.77;;
65879;SDS011;52661;51.364;6.054;2024-01-30T07:32:46;4.13;;;2.38;;
65879;SDS011;52661;51.364;6.054;2024-01-30T07:35:12;3.85;;;2.17;;
65879;SDS011;52661;51.364;6.054;2024-01-30T07:37:38;6.05;;;2.10;;
65879;SDS011;52661;51.364;6.054;2024-01-30T07:40:03;4.60;;;2.43;;
65879;SDS011;52661;51.364;6.054;2024-01-30T07:42:29;5.43;;;2.60;;
65879;SDS011;52661;51.364;6.054;2024-01-30T07:44:54;10.47;;;2.97;;
65879;SDS011;52661;51.364;6.054;2024-01-30T07:47:20;5.25;;;2.30;;
65879;SDS011;52661;51.364;6.054;2024-01-30T07:49:45;4.78;;;1.70;;
65879;SDS011;52661;51.364;6.054;2024-01-30T07:52:10;4.97;;;1.83;;
65879;SDS011;52661;51.364;6.054;2024-01-30T07:54:48;5.70;;;2.30;;
65879;SDS011;52661;51.364;6.054;2024-01-30T07:57:14;4.35;;;2.10;;
65879;SDS011;52661;51.364;6.054;2024-01-30T07:59:41;6.07;;;2.35;;
65879;SDS011;52661;51.364;6.054;2024-01-30T08:02:07;5.70;;;1.92;;
65879;SDS011;52661;51.364;6.054;2024-01-30T08:04:33;3.08;;;1.50;;
65879;SDS011;52661;51.364;6.054;2024-01-30T08:06:58;4.55;;;1.70;;
65879;SDS011;52661;51.364;6.054;2024-01-30T08:09:23;3.80;;;2.40;;
65879;SDS011;52661;51.364;6.054;2024-01-30T08:11:48;4.07;;;2.20;;
65879;SDS011;52661;51.364;6.054;2024-01-30T08:14:14;2.90;;;1.33;;
65879;SDS011;52661;51.364;6.054;2024-01-30T08:16:39;5.78;;;1.90;;
65879;SDS011;52661;51.364;6.054;2024-01-30T08:19:04;11.67;;;2.93;;
65879;SDS011;52661;51.364;6.054;2024-01-30T08:21:30;4.00;;;1.73;;
65879;SDS011;52661;51.364;6.054;2024-01-30T08:23:55;7.50;;;2.67;;
65879;SDS011;52661;51.364;6.054;2024-01-30T08:26:20;5.97;;;1.90;;
65879;SDS011;52661;51.364;6.054;2024-01-30T08:28:46;6.03;;;1.70;;
65879;SDS011;52661;51.364;6.054;2024-01-30T08:31:11;4.10;;;2.20;;
65879;SDS011;52661;51.364;6.054;2024-01-30T08:33:39;3.25;;;1.92;;
65879;SDS011;52661;51.364;6.054;2024-01-30T08:36:04;4.03;;;2.28;;
65879;SDS011;52661;51.364;6.054;2024-01-30T08:38:30;6.25;;;1.77;;
65879;SDS011;52661;51.364;6.054;2024-01-30T08:40:56;4.68;;;1.95;;
65879;SDS011;52661;51.364;6.054;2024-01-30T08:43:21;3.17;;;1.65;;
65879;SDS011;52661;51.364;6.054;2024-01-30T08:45:46;2.70;;;1.58;;
65879;SDS011;52661;51.364;6.054;2024-01-30T08:48:12;1.42;;;0.70;;
65879;SDS011;52661;51.364;6.054;2024-01-30T08:50:37;4.88;;;1.80;;
65879;SDS011;52661;51.364;6.054;2024-01-30T08:53:04;2.97;;;1.77;;
65879;SDS011;52661;51.364;6.054;2024-01-30T08:55:29;3.90;;;2.20;;
65879;SDS011;52661;51.364;6.054;2024-01-30T08:57:54;6.27;;;1.90;;
65879;SDS011;52661;51.364;6.054;2024-01-30T09:00:19;4.20;;;2.17;;
65879;SDS011;52661;51.364;6.054;2024-01-30T09:02:45;3.67;;;1.77;;
65879;SDS011;52661;51.364;6.054;2024-01-30T09:05:10;5.17;;;1.30;;
65879;SDS011;52661;51.364;6.054;2024-01-30T09:07:36;3.45;;;2.10;;
65879;SDS011;52661;51.364;6.054;2024-01-30T09:10:01;2.63;;;1.87;;
65879;SDS011;52661;51.364;6.054;2024-01-30T09:12:26;3.80;;;1.58;;
65879;SDS011;52661;51.364;6.054;2024-01-30T09:14:52;6.57;;;1.80;;
65879;SDS011;52661;51.364;6.054;2024-01-30T09:17:17;3.97;;;1.88;;
65879;SDS011;52661;51.364;6.054;2024-01-30T09:19:43;5.63;;;2.00;;
65879;SDS011;52661;51.364;6.054;2024-01-30T09:22:08;2.50;;;0.80;;
65879;SDS011;52661;51.364;6.054;2024-01-30T09:24:33;4.45;;;2.00;;
65879;SDS011;52661;51.364;6.054;2024-01-30T09:26:59;5.30;;;1.83;;
65879;SDS011;52661;51.364;6.054;2024-01-30T09:29:24;2.53;;;0.90;;
65879;SDS011;52661;51.364;6.054;2024-01-30T09:31:50;3.53;;;1.63;;
65879;SDS011;52661;51.364;6.054;2024-01-30T09:34:15;6.10;;;1.30;;
65879;SDS011;52661;51.364;6.054;2024-01-30T09:36:40;3.67;;;1.70;;
65879;SDS011;52661;51.364;6.054;2024-01-30T09:39:06;6.00;;;1.93;;
65879;SDS011;52661;51.364;6.054;2024-01-30T09:41:32;9.50;;;2.28;;
65879;SDS011;52661;51.364;6.054;2024-01-30T09:43:58;4.25;;;1.85;;
65879;SDS011;52661;51.364;6.054;2024-01-30T09:46:26;4.28;;;2.22;;
65879;SDS011;52661;51.364;6.054;2024-01-30T09:48:52;3.65;;;1.95;;
65879;SDS011;52661;51.364;6.054;2024-01-30T09:51:19;3.40;;;1.92;;
65879;SDS011;52661;51.364;6.054;2024-01-30T09:53:46;4.18;;;2.13;;
65879;SDS011;52661;51.364;6.054;2024-01-30T09:56:14;5.13;;;2.47;;
65879;SDS011;52661;51.364;6.054;2024-01-30T09:58:41;8.32;;;2.85;;
65879;SDS011;52661;51.364;6.054;2024-01-30T10:01:07;4.45;;;2.22;;
65879;SDS011;52661;51.364;6.054;2024-01-30T10:03:32;7.93;;;2.80;;
65879;SDS011;52661;51.364;6.054;2024-01-30T10:05:58;4.60;;;2.83;;
65879;SDS011;52661;51.364;6.054;2024-01-30T10:08:24;4.75;;;2.20;;
65879;SDS011;52661;51.364;6.054;2024-01-30T10:10:51;5.03;;;2.30;;
65879;SDS011;52661;51.364;6.054;2024-01-30T10:13:16;3.20;;;1.80;;
65879;SDS011;52661;51.364;6.054;2024-01-30T10:15:42;4.35;;;2.22;;
65879;SDS011;52661;51.364;6.054;2024-01-30T10:18:10;9.85;;;1.55;;
65879;SDS011;52661;51.364;6.054;2024-01-30T10:20:36;4.88;;;2.17;;
65879;SDS011;52661;51.364;6.054;2024-01-30T10:23:02;7.20;;;2.22;;
65879;SDS011;52661;51.364;6.054;2024-01-30T10:25:28;7.88;;;2.50;;
65879;SDS011;52661;51.364;6.054;2024-01-30T10:27:54;6.40;;;1.75;;
65879;SDS011;52661;51.364;6.054;2024-01-30T10:30:23;6.38;;;2.10;;
65879;SDS011;52661;51.364;6.054;2024-01-30T10:32:50;6.18;;;2.45;;
65879;SDS011;52661;51.364;6.054;2024-01-30T10:35:16;4.05;;;2.10;;
65879;SDS011;52661;51.364;6.054;2024-01-30T10:37:43;4.20;;;2.80;;
65879;SDS011;52661;51.364;6.054;2024-01-30T10:40:09;3.50;;;2.38;;
65879;SDS011;52661;51.364;6.054;2024-01-30T10:42:38;4.00;;;2.17;;
65879;SDS011;52661;51.364;6.054;2024-01-30T10:45:08;4.75;;;2.33;;
65879;SDS011;52661;51.364;6.054;2024-01-30T10:47:37;3.63;;;1.75;;
65879;SDS011;52661;51.364;6.054;2024-01-30T10:50:05;4.03;;;1.98;;
65879;SDS011;52661;51.364;6.054;2024-01-30T10:52:32;2.58;;;1.42;;
65879;SDS011;52661;51.364;6.054;2024-01-30T10:54:58;6.38;;;2.13;;
65879;SDS011;52661;51.364;6.054;2024-01-30T10:57:24;5.13;;;2.58;;
65879;SDS011;52661;51.364;6.054;2024-01-30T10:59:50;8.23;;;3.20;;
65879;SDS011;52661;51.364;6.054;2024-01-30T11:02:18;5.13;;;2.30;;
65879;SDS011;52661;51.364;6.054;2024-01-30T11:04:45;3.65;;;1.73;;
65879;SDS011;52661;51.364;6.054;2024-01-30T11:07:14;4.22;;;2.35;;
65879;SDS011;52661;51.364;6.054;2024-01-30T11:09:41;2.88;;;1.77;;
65879;SDS011;52661;51.364;6.054;2024-01-30T11:12:13;4.63;;;2.00;;
65879;SDS011;52661;51.364;6.054;2024-01-30T11:14:38;2.97;;;1.00;;
65879;SDS011;52661;51.364;6.054;2024-01-30T11:17:05;8.00;;;3.00;;
65879;SDS011;52661;51.364;6.054;2024-01-30T11:19:31;6.30;;;2.47;;
65879;SDS011;52661;51.364;6.054;2024-01-30T11:21:57;3.67;;;1.85;;
65879;SDS011;52661;51.364;6.054;2024-01-30T11:24:23;5.75;;;2.45;;
65879;SDS011;52661;51.364;6.054;2024-01-30T11:27:01;3.78;;;1.90;;
65879;SDS011;52661;51.364;6.054;2024-01-30T11:29:28;6.97;;;2.40;;
65879;SDS011;52661;51.364;6.054;2024-01-30T11:31:54;3.72;;;1.83;;
65879;SDS011;52661;51.364;6.054;2024-01-30T11:34:20;3.25;;;1.73;;
65879;SDS011;52661;51.364;6.054;2024-01-30T11:36:48;5.88;;;2.60;;
65879;SDS011;52661;51.364;6.054;2024-01-30T11:39:23;4.97;;;2.05;;
65879;SDS011;52661;51.364;6.054;2024-01-30T11:41:52;6.82;;;2.53;;
65879;SDS011;52661;51.364;6.054;2024-01-30T11:44:19;5.00;;;2.85;;
65879;SDS011;52661;51.364;6.054;2024-01-30T11:46:46;6.63;;;2.60;;
65879;SDS011;52661;51.364;6.054;2024-01-30T11:49:12;5.00;;;2.25;;
65879;SDS011;52661;51.364;6.054;2024-01-30T11:51:38;5.15;;;2.53;;
65879;SDS011;52661;51.364;6.054;2024-01-30T11:54:03;7.28;;;2.90;;
65879;SDS011;52661;51.364;6.054;2024-01-30T11:56:29;6.45;;;2.40;;
65879;SDS011;52661;51.364;6.054;2024-01-30T11:58:54;4.40;;;2.37;;
65879;SDS011;52661;51.364;6.054;2024-01-30T12:01:20;3.33;;;1.52;;
65879;SDS011;52661;51.364;6.054;2024-01-30T12:03:51;6.35;;;1.85;;
65879;SDS011;52661;51.364;6.054;2024-01-30T12:06:16;5.95;;;2.70;;
65879;SDS011;52661;51.364;6.054;2024-01-30T12:08:42;5.97;;;1.88;;
65879;SDS011;52661;51.364;6.054;2024-01-30T12:11:07;4.40;;;2.45;;
65879;SDS011;52661;51.364;6.054;2024-01-30T12:13:33;3.85;;;2.10;;
65879;SDS011;52661;51.364;6.054;2024-01-30T12:15:59;4.85;;;1.98;;
65879;SDS011;52661;51.364;6.054;2024-01-30T12:18:26;3.97;;;2.10;;
65879;SDS011;52661;51.364;6.054;2024-01-30T12:21:00;5.95;;;2.65;;
65879;SDS011;52661;51.364;6.054;2024-01-30T12:23:28;5.90;;;2.00;;
65879;SDS011;52661;51.364;6.054;2024-01-30T12:25:54;5.82;;;2.25;;
65879;SDS011;52661;51.364;6.054;2024-01-30T12:28:20;4.28;;;2.83;;
65879;SDS011;52661;51.364;6.054;2024-01-30T12:30:45;9.45;;;3.10;;
65879;SDS011;52661;51.364;6.054;2024-01-30T12:33:16;13.00;;;2.70;;
65879;SDS011;52661;51.364;6.054;2024-01-30T12:35:47;5.22;;;1.98;;
65879;SDS011;52661;51.364;6.054;2024-01-30T12:38:13;4.15;;;2.20;;
65879;SDS011;52661;51.364;6.054;2024-01-30T12:40:39;7.80;;;2.70;;
65879;SDS011;52661;51.364;6.054;2024-01-30T12:43:05;5.10;;;2.28;;
65879;SDS011;52661;51.364;6.054;2024-01-30T12:45:30;5.50;;;2.80;;
65879;SDS011;52661;51.364;6.054;2024-01-30T12:47:55;8.02;;;2.75;;
65879;SDS011;52661;51.364;6.054;2024-01-30T12:50:21;3.45;;;2.28;;
65879;SDS011;52661;51.364;6.054;2024-01-30T12:52:47;6.38;;;2.72;;
65879;SDS011;52661;51.364;6.054;2024-01-30T12:55:13;5.05;;;2.88;;
65879;SDS011;52661;51.364;6.054;2024-01-30T12:57:38;3.38;;;2.17;;
65879;SDS011;52661;51.364;6.054;2024-01-30T13:00:04;7.30;;;3.17;;
65879;SDS011;52661;51.364;6.054;2024-01-30T13:02:33;5.53;;;2.45;;
65879;SDS011;52661;51.364;6.054;2024-01-30T13:05:02;9.43;;;3.00;;
65879;SDS011;52661;51.364;6.054;2024-01-30T13:07:28;7.03;;;3.05;;
65879;SDS011;52661;51.364;6.054;2024-01-30T13:09:53;9.00;;;2.03;;
65879;SDS011;52661;51.364;6.054;2024-01-30T13:12:18;8.45;;;2.22;;
65879;SDS011;52661;51.364;6.054;2024-01-30T13:14:44;3.33;;;2.17;;
65879;SDS011;52661;51.364;6.054;2024-01-30T13:17:09;9.37;;;3.00;;
65879;SDS011;52661;51.364;6.054;2024-01-30T13:19:34;5.80;;;2.95;;
65879;SDS011;52661;51.364;6.054;2024-01-30T13:21:59;5.00;;;1.73;;
65879;SDS011;52661;51.364;6.054;2024-01-30T13:24:25;5.03;;;3.13;;
65879;SDS011;52661;51.364;6.054;2024-01-30T13:26:50;3.83;;;1.80;;
65879;SDS011;52661;51.364;6.054;2024-01-30T13:29:16;4.05;;;1.98;;
65879;SDS011;52661;51.364;6.054;2024-01-30T13:31:41;2.47;;;0.95;;
65879;SDS011;52661;51.364;6.054;2024-01-30T13:34:06;5.65;;;2.22;;
65879;SDS011;52661;51.364;6.054;2024-01-30T13:36:32;3.65;;;1.52;;
65879;SDS011;52661;51.364;6.054;2024-01-30T13:38:57;3.85;;;1.42;;
65879;SDS011;52661;51.364;6.054;2024-01-30T13:41:23;6.43;;;2.05;;
65879;SDS011;52661;51.364;6.054;2024-01-30T13:43:48;2.47;;;1.63;;
65879;SDS011;52661;51.364;6.054;2024-01-30T13:46:14;1.95;;;1.38;;
65879;SDS011;52661;51.364;6.054;2024-01-30T13:48:39;4.60;;;1.00;;
65879;SDS011;52661;51.364;6.054;2024-01-30T13:51:04;2.42;;;0.63;;
65879;SDS011;52661;51.364;6.054;2024-01-30T13:53:30;4.00;;;1.10;;
65879;SDS011;52661;51.364;6.054;2024-01-30T13:55:55;1.53;;;1.13;;
65879;SDS011;52661;51.364;6.054;2024-01-30T13:58:21;1.37;;;0.87;;
65879;SDS011;52661;51.364;6.054;2024-01-30T14:00:46;8.02;;;1.02;;
65879;SDS011;52661;51.364;6.054;2024-01-30T14:03:11;2.97;;;0.80;;
65879;SDS011;52661;51.364;6.054;2024-01-30T14:05:37;1.73;;;1.10;;
65879;SDS011;52661;51.364;6.054;2024-01-30T14:08:02;1.42;;;1.08;;
65879;SDS011;52661;51.364;6.054;2024-01-30T14:10:28;1.00;;;0.43;;
65879;SDS011;52661;51.364;6.054;2024-01-30T14:12:53;3.73;;;1.20;;
65879;SDS011;52661;51.364;6.054;2024-01-30T14:15:19;2.17;;;0.80;;
65879;SDS011;52661;51.364;6.054;2024-01-30T14:17:44;1.60;;;1.47;;
65879;SDS011;52661;51.364;6.054;2024-01-30T14:20:10;1.10;;;0.82;;
65879;SDS011;52661;51.364;6.054;2024-01-30T14:22:36;1.17;;;0.60;;
65879;SDS011;52661;51.364;6.054;2024-01-30T14:25:02;1.20;;;0.55;;
65879;SDS011;52661;51.364;6.054;2024-01-30T14:27:30;1.60;;;0.45;;
65879;SDS011;52661;51.364;6.054;2024-01-30T14:29:56;2.75;;;0.80;;
65879;SDS011;52661;51.364;6.054;2024-01-30T14:32:22;3.95;;;0.95;;
65879;SDS011;52661;51.364;6.054;2024-01-30T14:34:48;2.50;;;0.20;;
65879;SDS011;52661;51.364;6.054;2024-01-30T14:37:14;1.88;;;0.80;;
65879;SDS011;52661;51.364;6.054;2024-01-30T14:39:39;1.00;;;0.65;;